Terminal Aerodrome Forecast
Issued by NWS

Home | Current Version | Previous Version | Text Only | Print | Product List | Glossary Off
Versions: 1 2 3 4 5 6 7 8 9 10 11 12 13 14 15 16 17 18

000
FTUS43 KABR 302300
TAFATY
TAF
KATY 302328Z 3100/3124 VRB05KT P6SM SKC
     FM310900 16014KT P6SM OVC100
      TEMPO 3110/3114 OVC015
     FM312100 25010KT P6SM VCTS OVC050CB=

USA.gov is the U.S. government's official web portal to all federal, state and local government web resources and services.